Latest Weather Observations for Friendly Beaches

IDT60801

Issued at 6:05 pm EST Monday 22 September 2014 (issued every 30 minutes, with the page automatically refreshed every 10 minutes)

About weather observations | Map of weather stations | Latest weather observations for TAS | Other Formats
Station Details ID: 092114 Name: FRIENDLY BEACHES Lat: -42.00 Lon: 148.28 Height: 55.0 m
Data from the previous 72 hours. | See also: Recent months at Friendly Beaches
Date/Time
EST
Temp
°C
App
Temp
°C
Dew
Point
Rel
Hum
%
Delta-T
°C
Wind Press
QNH
hPa
Press
MSL
hPa
Rain
since 9 am
mm
Dir
 
Spd
km/h
Gust
km/h
Spd
kts
Gust
kts
22/06:00pm 18.0 14.9 1.1 32 7.5 NNW 7 11 4 6 1022.2 1022.2 0.0
22/05:30pm 16.4 16.2 9.1 62 3.8 WNW 0 0 0 0 1022.3 1022.3 0.0
22/05:00pm 19.4 18.1 9.3 52 5.3 WNW 6 9 3 5 1022.2 1022.2 0.0
22/04:30pm 18.1 16.4 9.7 58 4.4 NE 9 13 5 7 1022.0 1022.0 0.0
22/04:00pm 19.6 18.3 9.8 53 5.2 NE 7 15 4 8 1022.2 1022.2 0.0
22/03:30pm 21.3 20.2 9.9 48 6.2 NNE 6 15 3 8 1022.2 1022.2 0.0
22/03:00pm 23.0 20.7 7.5 37 8.1 N 9 17 5 9 1022.5 1022.5 0.0
22/02:30pm 22.5 20.7 9.6 44 7.0 NNE 9 15 5 8 1022.9 1022.9 0.0
22/02:00pm 22.2 19.6 7.6 39 7.6 NE 11 22 6 12 1023.2 1023.2 0.0
22/01:30pm 21.5 18.9 9.4 46 6.5 NNE 13 24 7 13 1023.4 1023.4 0.0
22/01:00pm 21.1 17.9 8.4 44 6.6 NNE 15 22 8 12 1023.7 1023.7 0.0
22/12:30pm 20.9 17.2 6.1 38 7.4 NNE 15 22 8 12 1024.1 1024.1 0.0
22/12:00pm 20.2 17.8 8.5 47 6.1 NE 11 19 6 10 1024.7 1024.7 0.0
22/11:30am 18.8 16.3 9.6 55 4.9 NNE 13 20 7 11 1025.0 1025.0 0.0
22/11:00am 17.9 15.0 9.5 58 4.4 NNE 15 22 8 12 1025.4 1025.4 0.0
22/10:30am 16.9 14.2 8.8 59 4.2 NE 13 20 7 11 1026.0 1026.0 0.0
22/10:00am 16.6 14.2 10.0 65 3.5 NE 13 17 7 9 1026.3 1026.3 0.0
22/09:30am 15.6 13.7 10.4 71 2.7 ENE 11 17 6 9 1026.6 1026.6 0.0
22/09:00am 14.8 13.4 11.0 78 2.0 ENE 9 15 5 8 1026.9 1026.9 0.0
22/08:30am 13.8 12.4 10.8 82 1.6 NE 9 17 5 9 1027.2 1027.2 0.0
22/08:00am 12.5 10.3 10.7 89 0.9 NNE 13 17 7 9 1027.2 1027.2 0.0
22/07:30am 11.6 10.2 10.8 95 0.4 NNE 9 19 5 10 1027.0 1027.0 0.0
22/07:00am 10.7 8.8 10.4 98 0.2 NE 11 17 6 9 1027.0 1027.0 0.0
22/06:30am 10.1 7.6 9.8 98 0.2 NNE 13 19 7 10 1027.1 1027.1 0.0
22/06:00am 9.8 7.2 9.5 98 0.1 NNE 13 20 7 11 1027.0 1027.0 0.0
22/05:30am 10.2 7.8 9.9 98 0.2 NNE 13 19 7 10 1027.0 1027.0 0.0
22/05:00am 9.5 8.0 9.2 98 0.1 ENE 7 9 4 5 1027.1 1027.1 0.0
22/04:30am 9.8 8.6 9.5 98 0.1 E 6 9 3 5 1026.8 1026.8 0.0
22/04:00am 9.3 7.9 9.0 98 0.1 E 6 9 3 5 1026.7 1026.7 0.0
22/03:30am 8.8 7.1 8.4 97 0.2 ENE 7 9 4 5 1026.4 1026.4 0.0
22/03:00am 8.7 6.9 8.1 96 0.3 NE 7 7 4 4 1026.5 1026.5 0.0
22/02:30am 9.2 7.7 8.6 96 0.3 E 6 7 3 4 1026.7 1026.7 0.0
22/02:00am 9.2 7.7 8.6 96 0.3 NNE 6 6 3 3 1026.7 1026.7 0.0
22/01:30am 9.6 9.0 8.8 95 0.4 E 2 4 1 2 1027.0 1027.0 0.0
22/01:00am 10.0 9.5 9.4 96 0.3 NE 2 4 1 2 1027.3 1027.3 0.0
22/12:30am 10.1 10.0 9.3 95 0.4 CALM 0 0 0 0 1027.4 1027.4 0.0
22/12:00am 10.5 10.1 9.7 95 0.4 ESE 2 4 1 2 1027.4 1027.4 0.0
 
Date/Time
EST
Temp
°C
App
Temp
°C
Dew
Point
Rel
Hum
%
Delta-T
°C
Wind Press
QNH
hPa
Press
MSL
hPa
Rain
since 9 am
mm
Dir
 
Spd
km/h
Gust
km/h
Spd
kts
Gust
kts
21/11:30pm 10.7 9.9 9.6 93 0.6 ESE 4 6 2 3 1027.5 1027.5 0.0
21/11:00pm 10.8 9.6 9.4 91 0.7 SE 6 7 3 4 1027.6 1027.6 0.0
21/10:30pm 11.4 10.2 7.9 79 1.7 SSE 4 9 2 5 1027.7 1027.7 0.0
21/10:00pm 11.7 9.3 5.3 65 2.9 W 7 9 4 5 1027.5 1027.5 0.0
21/09:30pm 12.0 9.2 5.0 62 3.2 W 9 9 5 5 1027.3 1027.3 0.0
21/09:00pm 12.6 10.1 4.6 58 3.6 WNW 7 9 4 5 1027.3 1027.3 0.0
21/08:30pm 13.2 10.7 4.6 56 4.0 WNW 7 9 4 5 1027.2 1027.2 0.0
21/08:00pm 12.7 10.3 5.1 60 3.5 WNW 7 7 4 4 1027.1 1027.1 0.0
21/07:30pm 12.6 10.4 6.2 65 3.0 W 7 9 4 5 1026.7 1026.7 0.0
21/07:00pm 13.1 11.8 6.2 63 3.3 S 2 4 1 2 1026.5 1026.5 0.0
21/06:30pm 13.8 12.4 5.4 57 4.0 SW 2 6 1 3 1026.2 1026.2 0.0
21/06:00pm 15.1 13.3 5.3 52 4.6 WNW 4 6 2 3 1025.9 1025.9 0.0
21/05:30pm 16.4 15.6 6.5 52 4.9 CALM 0 0 0 0 1025.6 1025.6 0.0
21/05:00pm 17.3 15.7 8.2 55 4.6 NNE 6 7 3 4 1025.4 1025.4 0.0
21/04:30pm 18.6 16.8 8.0 50 5.4 NNE 7 11 4 6 1025.5 1025.5 0.0
21/04:00pm 19.9 17.9 7.3 44 6.4 NNE 7 11 4 6 1025.3 1025.3 0.0
21/03:30pm 19.7 16.9 6.8 43 6.5 NNE 11 13 6 7 1025.2 1025.2 0.0
21/03:00pm 20.1 17.5 6.1 40 7.0 NE 9 15 5 8 1025.1 1025.1 0.0
21/02:30pm 19.8 16.9 6.5 42 6.7 NNE 11 17 6 9 1025.1 1025.1 0.0
21/02:00pm 19.4 16.4 6.2 42 6.5 NNE 11 17 6 9 1025.4 1025.4 0.0
21/01:30pm 18.5 15.0 5.4 42 6.4 NE 13 17 7 9 1025.5 1025.5 0.0
21/01:00pm 19.1 15.4 6.2 43 6.4 NE 15 19 8 10 1025.5 1025.5 0.0
21/12:30pm 18.6 15.4 6.8 46 5.9 NNE 13 19 7 10 1025.6 1025.6 0.0
21/12:00pm 18.7 16.0 7.5 48 5.7 NE 11 19 6 10 1025.9 1025.9 0.0
21/11:30am 18.9 16.7 6.4 44 6.2 SSW 7 17 4 9 1026.2 1026.2 0.0
21/11:00am 18.0 14.6 3.9 39 6.6 W 11 19 6 10 1026.3 1026.3 0.0
21/10:30am 17.7 14.2 5.3 44 6.0 W 13 19 7 10 1026.5 1026.5 0.0
21/10:00am 16.6 12.9 4.6 45 5.6 WSW 13 22 7 12 1026.5 1026.5 0.0
21/09:30am 15.9 13.2 5.5 50 5.0 WSW 9 17 5 9 1026.5 1026.5 0.0
21/09:00am 14.8 12.0 5.3 53 4.5 W 9 19 5 10 1026.3 1026.3 0.0
21/08:30am 13.6 11.4 5.3 57 3.9 W 6 11 3 6 1026.2 1026.2 0.0
21/08:00am 12.4 10.4 4.4 58 3.6 W 4 7 2 4 1026.0 1026.0 0.0
21/07:30am 11.3 8.6 3.8 60 3.3 WNW 7 13 4 7 1025.7 1025.7 0.0
21/07:00am 10.0 6.9 3.5 64 2.8 WNW 9 15 5 8 1025.7 1025.7 0.0
21/06:30am 8.8 6.0 3.0 67 2.5 W 7 13 4 7 1025.6 1025.6 0.0
21/06:00am 8.3 5.4 2.5 67 2.4 WNW 7 13 4 7 1025.5 1025.5 0.0
21/05:30am 7.8 4.5 2.5 69 2.2 W 9 13 5 7 1025.1 1025.1 0.0
21/05:00am 7.9 3.5 2.6 69 2.2 W 15 20 8 11 1024.8 1024.8 0.0
21/04:30am 7.9 5.2 2.4 68 2.3 WNW 6 9 3 5 1024.9 1024.9 0.0
21/04:00am 8.0 4.4 2.9 70 2.1 WNW 11 15 6 8 1025.0 1025.0 0.0
21/03:30am 7.6 4.1 3.5 75 1.8 W 11 13 6 7 1025.2 1025.2 0.0
21/03:00am 7.6 4.5 3.5 75 1.7 W 9 11 5 6 1025.5 1025.5 0.0
21/02:30am 7.9 5.1 3.4 73 1.9 W 7 13 4 7 1025.5 1025.5 0.0
21/02:00am 8.2 5.1 3.5 72 2.0 WSW 9 15 5 8 1025.2 1025.2 0.0
21/01:30am 8.4 5.3 3.7 72 2.0 W 9 17 5 9 1025.1 1025.1 0.0
21/01:00am 7.8 4.9 4.4 79 1.5 WNW 9 13 5 7 1025.4 1025.4 0.0
21/12:30am 7.8 4.9 4.4 79 1.5 W 9 13 5 7 1025.5 1025.5 0.0
21/12:00am 8.3 5.6 3.8 73 1.9 W 7 13 4 7 1025.7 1025.7 0.0
 
Date/Time
EST
Temp
°C
App
Temp
°C
Dew
Point
Rel
Hum
%
Delta-T
°C
Wind Press
QNH
hPa
Press
MSL
hPa
Rain
since 9 am
mm
Dir
 
Spd
km/h
Gust
km/h
Spd
kts
Gust
kts
20/11:30pm 8.1 5.7 4.1 76 1.7 WNW 6 7 3 4 1026.0 1026.0 0.0
20/11:00pm 8.1 5.7 4.3 77 1.7 W 6 11 3 6 1026.0 1026.0 0.0
20/10:30pm 8.1 5.1 4.1 76 1.7 WSW 9 13 5 7 1025.8 1025.8 0.0
20/10:00pm 8.3 5.8 4.5 77 1.7 W 7 9 4 5 1025.8 1025.8 0.0
20/09:30pm 8.7 6.4 4.7 76 1.8 W 6 7 3 4 1025.9 1025.9 0.0
20/09:00pm 9.1 6.7 5.3 77 1.7 W 7 9 4 5 1025.6 1025.6 0.0
20/08:30pm 9.2 6.5 5.6 78 1.6 W 9 13 5 7 1025.4 1025.4 0.0
20/08:00pm 9.7 6.9 7.0 83 1.3 W 11 15 6 8 1024.9 1024.9 0.0
20/07:30pm 9.7 7.8 6.8 82 1.4 W 6 7 3 4 1024.5 1024.5 0.0
20/07:00pm 10.4 8.4 7.1 80 1.6 NNW 7 11 4 6 1024.3 1024.3 0.0
20/06:30pm 10.7 8.3 7.2 79 1.7 NNW 9 13 5 7 1024.3 1024.3 0.0
20/06:00pm 11.0 9.1 6.7 75 2.0 N 6 9 3 5 1024.0 1024.0 0.0
20/05:30pm 12.0 9.5 6.5 69 2.6 N 9 13 5 7 1023.8 1023.8 0.0
20/05:00pm 13.5 10.8 7.3 66 3.0 NNE 11 15 6 8 1023.5 1023.5 0.0
20/04:30pm 14.9 12.7 7.9 63 3.5 NE 9 15 5 8 1023.4 1023.4 0.0
20/04:00pm 15.1 12.8 7.6 61 3.7 NE 9 15 5 8 1023.1 1023.1 0.0
20/03:30pm 15.2 12.5 7.5 60 3.8 ENE 11 15 6 8 1023.0 1023.0 0.0
20/03:00pm 14.0 11.3 7.5 65 3.2 ENE 11 17 6 9 1022.8 1022.8 0.0
20/02:30pm 14.7 12.2 8.2 65 3.3 ENE 11 17 6 9 1023.0 1023.0 0.0
20/02:00pm 15.4 12.9 8.4 63 3.5 ENE 11 17 6 9 1022.6 1022.6 0.0
20/01:30pm 14.8 11.9 8.1 64 3.4 E 13 17 7 9 1022.7 1022.7 0.0
20/01:00pm 14.5 11.5 7.8 64 3.3 E 13 17 7 9 1022.6 1022.6 0.0
20/12:30pm 15.9 13.1 8.6 62 3.7 E 13 17 7 9 1022.5 1022.5 0.0
20/12:00pm 16.3 13.2 7.3 55 4.5 SE 13 19 7 10 1022.7 1022.7 0.0
20/11:30am 16.1 13.0 7.3 56 4.4 ESE 13 17 7 9 1022.6 1022.6 0.0
20/11:00am 16.6 13.4 4.9 46 5.5 S 11 19 6 10 1022.5 1022.5 0.0
20/10:30am 16.1 13.8 5.7 50 5.0 WSW 7 17 4 9 1022.6 1022.6 0.0
20/10:00am 15.4 12.6 5.3 51 4.8 SSW 9 17 5 9 1022.8 1022.8 0.0
20/09:30am 15.2 12.5 5.7 53 4.5 SW 9 20 5 11 1022.9 1022.9 0.0
20/09:00am 13.9 10.4 5.3 56 4.0 WSW 13 20 7 11 1022.8 1022.8 0.0
20/08:30am 13.3 9.8 5.5 59 3.7 WSW 13 24 7 13 1022.6 1022.6 0.0
20/08:00am 12.3 9.6 5.7 64 3.1 W 9 17 5 9 1022.7 1022.7 0.0
20/07:30am 11.0 7.9 5.5 69 2.5 W 11 17 6 9 1022.2 1022.2 0.0
20/07:00am 9.7 6.9 5.3 74 2.0 W 9 15 5 8 1022.0 1022.0 0.0
20/06:30am 9.2 5.6 5.0 75 1.9 W 13 20 7 11 1021.5 1021.5 0.0
20/06:00am 8.9 5.7 5.3 78 1.6 W 11 15 6 8 1021.4 1021.4 0.0
20/05:30am 8.5 5.6 4.5 76 1.8 W 9 13 5 7 1020.8 1020.8 0.0
20/05:00am 8.7 5.4 4.3 74 1.9 WSW 11 15 6 8 1020.3 1020.3 0.0
20/04:30am 8.9 6.3 4.1 72 2.1 W 7 11 4 6 1020.0 1020.0 0.0
20/04:00am 9.4 5.7 4.2 70 2.3 W 13 20 7 11 1019.3 1019.4 0.0
20/03:30am 9.1 5.8 4.5 73 2.0 W 11 17 6 9 1018.8 1018.9 0.0
20/03:00am 8.3 5.1 4.9 79 1.5 W 11 15 6 8 1018.9 1019.0 0.0
20/02:30am 8.7 5.8 4.7 76 1.8 WSW 9 13 5 7 1018.6 1018.7 0.0
20/02:00am 9.5 5.9 4.9 73 2.1 WSW 13 19 7 10 1018.7 1018.8 0.0
20/01:30am 9.4 5.8 5.0 74 2.0 SW 13 19 7 10 1018.8 1018.9 0.0
20/01:00am 9.7 6.1 5.1 73 2.1 SW 13 22 7 12 1018.9 1019.0 0.0
20/12:30am 9.9 5.9 4.9 71 2.3 SW 15 24 8 13 1018.4 1018.5 0.0
20/12:00am 10.3 7.1 4.9 69 2.4 WSW 11 20 6 11 1018.6 1018.7 0.0
 
Date/Time
EST
Temp
°C
App
Temp
°C
Dew
Point
Rel
Hum
%
Delta-T
°C
Wind Press
QNH
hPa
Press
MSL
hPa
Rain
since 9 am
mm
Dir
 
Spd
km/h
Gust
km/h
Spd
kts
Gust
kts
19/11:30pm 10.5 6.5 5.1 69 2.5 SW 15 24 8 13 1018.4 1018.5 0.0
19/11:00pm 10.9 6.2 5.0 67 2.7 WSW 19 30 10 16 1018.1 1018.2 0.0
19/10:30pm 11.1 6.3 4.8 65 2.9 WSW 19 32 10 17 1017.9 1018.0 0.0
19/10:00pm 11.1 6.2 4.3 63 3.0 WSW 19 28 10 15 1017.8 1017.9 0.0
19/09:30pm 11.3 6.2 4.1 61 3.2 SW 20 30 11 16 1017.7 1017.8 0.0
19/09:00pm 11.4 6.4 3.7 59 3.4 SW 19 32 10 17 1017.3 1017.4 0.0
19/08:30pm 11.4 6.2 2.7 55 3.8 WSW 19 28 10 15 1016.9 1017.0 0.0
19/08:00pm 11.8 6.6 2.3 52 4.1 WSW 19 28 10 15 1016.8 1016.9 0.0
19/07:30pm 12.2 6.7 1.8 49 4.5 WSW 20 33 11 18 1016.6 1016.7 0.0
19/07:00pm 12.7 6.8 1.7 47 4.7 WSW 22 37 12 20 1016.3 1016.4 0.0
19/06:30pm 13.0 7.1 2.0 47 4.8 WSW 22 33 12 18 1016.0 1016.1 0.0

Other Formats:

Comma delimited format used in spreadsheet applications
http://www.bom.gov.au/fwo/IDT60801/IDT60801.94987.axf

JavaScript Object Notation format (JSON) in row-major order
http://www.bom.gov.au/fwo/IDT60801/IDT60801.94987.json